sensor_id;sensor_type;location;lat;lon;timestamp;pressure;altitude;pressure_sealevel;temperature;humidity
79780;BME280;69258;52.050;10.334;2023-06-26T00:14:58;99591.94;;;24.42;54.19
79780;BME280;69258;52.050;10.334;2023-06-26T00:30:01;99586.78;;;24.41;54.24
79780;BME280;69258;52.050;10.334;2023-06-26T00:45:03;99588.41;;;24.42;54.51
79780;BME280;69258;52.050;10.334;2023-06-26T01:00:05;99575.44;;;24.39;54.25
79780;BME280;69258;52.050;10.334;2023-06-26T01:15:08;99559.25;;;24.39;54.76
79780;BME280;69258;52.050;10.334;2023-06-26T01:30:11;99552.00;;;24.39;54.28
79780;BME280;69258;52.050;10.334;2023-06-26T01:45:22;99531.72;;;24.37;54.94
79780;BME280;69258;52.050;10.334;2023-06-26T02:00:26;99504.44;;;24.33;55.16
79780;BME280;69258;52.050;10.334;2023-06-26T02:15:30;99496.97;;;24.35;54.80
79780;BME280;69258;52.050;10.334;2023-06-26T02:30:32;99483.72;;;24.34;54.82
79780;BME280;69258;52.050;10.334;2023-06-26T02:45:35;99479.63;;;24.31;54.57
79780;BME280;69258;52.050;10.334;2023-06-26T03:00:37;99473.41;;;24.31;54.62
79780;BME280;69258;52.050;10.334;2023-06-26T03:15:39;99464.50;;;24.30;54.58
79780;BME280;69258;52.050;10.334;2023-06-26T03:30:42;99462.66;;;24.31;54.61
79780;BME280;69258;52.050;10.334;2023-06-26T03:45:45;99453.97;;;24.29;54.46
79780;BME280;69258;52.050;10.334;2023-06-26T04:00:48;99439.72;;;24.28;54.45
79780;BME280;69258;52.050;10.334;2023-06-26T04:15:50;99437.44;;;23.49;55.31
79780;BME280;69258;52.050;10.334;2023-06-26T04:30:53;99434.16;;;23.47;55.73
79780;BME280;69258;52.050;10.334;2023-06-26T04:45:56;99426.44;;;23.50;54.44
79780;BME280;69258;52.050;10.334;2023-06-26T05:00:58;99423.22;;;23.60;54.83
79780;BME280;69258;52.050;10.334;2023-06-26T05:16:03;99413.53;;;23.82;55.93
79780;BME280;69258;52.050;10.334;2023-06-26T05:31:06;99399.84;;;23.95;54.95
79780;BME280;69258;52.050;10.334;2023-06-26T05:46:09;99387.09;;;24.03;55.62
79780;BME280;69258;52.050;10.334;2023-06-26T06:01:11;99375.97;;;24.11;54.93
79780;BME280;69258;52.050;10.334;2023-06-26T06:16:14;99365.50;;;24.21;54.29
79780;BME280;69258;52.050;10.334;2023-06-26T06:31:16;99377.66;;;24.23;53.74
79780;BME280;69258;52.050;10.334;2023-06-26T06:46:19;99362.31;;;24.24;53.99
79780;BME280;69258;52.050;10.334;2023-06-26T07:01:21;99352.13;;;24.26;53.79
79780;BME280;69258;52.050;10.334;2023-06-26T07:16:24;99346.25;;;24.29;54.11
79780;BME280;69258;52.050;10.334;2023-06-26T07:31:27;99354.66;;;24.32;53.90
79780;BME280;69258;52.050;10.334;2023-06-26T07:46:30;99354.66;;;24.32;53.91
79780;BME280;69258;52.050;10.334;2023-06-26T08:01:33;99367.69;;;24.35;54.30
79780;BME280;69258;52.050;10.334;2023-06-26T08:16:35;99349.41;;;24.37;54.66
79780;BME280;69258;52.050;10.334;2023-06-26T08:31:39;99353.50;;;24.40;53.95
79780;BME280;69258;52.050;10.334;2023-06-26T08:46:43;99353.25;;;24.41;54.34
79780;BME280;69258;52.050;10.334;2023-06-26T09:01:45;99355.25;;;24.46;54.19
79780;BME280;69258;52.050;10.334;2023-06-26T09:16:48;99341.53;;;24.48;54.37
79780;BME280;69258;52.050;10.334;2023-06-26T09:31:51;99316.00;;;24.50;54.54
79780;BME280;69258;52.050;10.334;2023-06-26T09:46:56;99350.53;;;24.53;54.26
79780;BME280;69258;52.050;10.334;2023-06-26T10:01:59;99351.94;;;24.56;54.13
79780;BME280;69258;52.050;10.334;2023-06-26T10:17:03;99345.00;;;24.60;54.30
79780;BME280;69258;52.050;10.334;2023-06-26T10:32:09;99371.03;;;24.66;54.01
79780;BME280;69258;52.050;10.334;2023-06-26T10:47:42;99418.78;;;24.70;54.36
79780;BME280;69258;52.050;10.334;2023-06-26T11:02:52;99418.09;;;24.75;53.95
79780;BME280;69258;52.050;10.334;2023-06-26T11:17:54;99443.50;;;24.79;54.84
79780;BME280;69258;52.050;10.334;2023-06-26T11:33:07;99477.16;;;24.76;55.50
79780;BME280;69258;52.050;10.334;2023-06-26T11:48:10;99492.50;;;24.64;54.92
79780;BME280;69258;52.050;10.334;2023-06-26T12:03:12;99521.19;;;23.53;52.31
79780;BME280;69258;52.050;10.334;2023-06-26T12:18:14;99549.94;;;23.34;51.15
79780;BME280;69258;52.050;10.334;2023-06-26T12:33:16;99549.63;;;23.42;52.45
79780;BME280;69258;52.050;10.334;2023-06-26T12:48:19;99545.81;;;23.68;52.42
79780;BME280;69258;52.050;10.334;2023-06-26T13:03:22;99551.25;;;24.32;52.59
79780;BME280;69258;52.050;10.334;2023-06-26T13:18:26;99536.19;;;24.43;52.50
79780;BME280;69258;52.050;10.334;2023-06-26T13:33:27;99528.22;;;24.48;52.80
79780;BME280;69258;52.050;10.334;2023-06-26T13:48:30;99527.31;;;24.54;52.99
79780;BME280;69258;52.050;10.334;2023-06-26T14:03:32;99523.09;;;24.58;52.82
79780;BME280;69258;52.050;10.334;2023-06-26T14:18:35;99525.88;;;24.63;53.53
79780;BME280;69258;52.050;10.334;2023-06-26T14:33:39;99537.84;;;24.67;52.86
79780;BME280;69258;52.050;10.334;2023-06-26T14:48:41;99517.69;;;24.70;52.51
79780;BME280;69258;52.050;10.334;2023-06-26T15:03:43;99528.22;;;24.71;52.64
79780;BME280;69258;52.050;10.334;2023-06-26T15:18:46;99512.88;;;24.72;53.44
79780;BME280;69258;52.050;10.334;2023-06-26T15:33:48;99505.16;;;24.75;53.23
79780;BME280;69258;52.050;10.334;2023-06-26T15:48:49;99527.06;;;24.79;53.98
79780;BME280;69258;52.050;10.334;2023-06-26T16:03:52;99517.91;;;24.80;53.40
79780;BME280;69258;52.050;10.334;2023-06-26T16:18:54;99539.22;;;24.81;53.78
79780;BME280;69258;52.050;10.334;2023-06-26T16:33:57;99554.81;;;24.79;53.13
79780;BME280;69258;52.050;10.334;2023-06-26T16:48:59;99580.84;;;24.85;53.83
79780;BME280;69258;52.050;10.334;2023-06-26T17:04:00;99587.53;;;24.83;53.51
79780;BME280;69258;52.050;10.334;2023-06-26T17:19:03;99611.78;;;24.83;54.09
79780;BME280;69258;52.050;10.334;2023-06-26T17:34:06;99636.03;;;24.83;54.34
79780;BME280;69258;52.050;10.334;2023-06-26T17:49:08;99632.84;;;24.74;54.70
79780;BME280;69258;52.050;10.334;2023-06-26T18:04:11;99670.44;;;24.58;51.93
79780;BME280;69258;52.050;10.334;2023-06-26T18:19:14;99671.97;;;24.54;50.01
79780;BME280;69258;52.050;10.334;2023-06-26T18:34:16;99682.03;;;24.47;50.17
79780;BME280;69258;52.050;10.334;2023-06-26T18:49:19;99709.78;;;24.47;49.70
79780;BME280;69258;52.050;10.334;2023-06-26T19:04:22;99724.75;;;24.43;48.58
79780;BME280;69258;52.050;10.334;2023-06-26T19:19:23;99728.50;;;24.42;48.57
79780;BME280;69258;52.050;10.334;2023-06-26T19:34:25;99749.06;;;24.55;49.18
79780;BME280;69258;52.050;10.334;2023-06-26T19:49:28;99763.09;;;24.57;49.97
79780;BME280;69258;52.050;10.334;2023-06-26T20:04:30;99775.53;;;24.58;49.78
79780;BME280;69258;52.050;10.334;2023-06-26T20:19:33;99793.56;;;24.57;50.09
79780;BME280;69258;52.050;10.334;2023-06-26T20:34:36;99801.66;;;24.57;51.18
79780;BME280;69258;52.050;10.334;2023-06-26T20:49:38;99815.34;;;24.56;51.23
79780;BME280;69258;52.050;10.334;2023-06-26T21:04:41;99829.25;;;24.53;50.78
79780;BME280;69258;52.050;10.334;2023-06-26T21:19:44;99832.19;;;24.51;51.35
79780;BME280;69258;52.050;10.334;2023-06-26T21:34:45;99843.19;;;24.50;50.95
79780;BME280;69258;52.050;10.334;2023-06-26T21:49:47;99858.75;;;24.48;51.19
79780;BME280;69258;52.050;10.334;2023-06-26T22:04:49;99888.38;;;24.48;51.75
79780;BME280;69258;52.050;10.334;2023-06-26T22:19:52;99886.97;;;24.45;51.44
79780;BME280;69258;52.050;10.334;2023-06-26T22:34:57;99871.00;;;24.43;52.23
79780;BME280;69258;52.050;10.334;2023-06-26T22:50:00;99874.78;;;24.42;52.25
79780;BME280;69258;52.050;10.334;2023-06-26T23:05:02;99880.63;;;24.39;52.00
79780;BME280;69258;52.050;10.334;2023-06-26T23:20:05;99876.28;;;24.38;51.90
79780;BME280;69258;52.050;10.334;2023-06-26T23:35:09;99892.66;;;24.37;52.49
79780;BME280;69258;52.050;10.334;2023-06-26T23:50:12;99894.50;;;24.36;51.92
